createdAt,value
2022-09-30T00:04:36.015Z,8.05
2022-09-30T00:09:38.891Z,7.63
2022-09-30T00:14:41.561Z,6.88
2022-09-30T00:19:46.665Z,5.88
2022-09-30T00:24:50.422Z,6.20
2022-09-30T00:29:53.933Z,6.80
2022-09-30T00:34:57.813Z,6.32
2022-09-30T00:40:00.629Z,6.20
2022-09-30T00:45:07.194Z,6.45
2022-09-30T00:50:28.490Z,6.13
2022-09-30T00:55:37.374Z,6.78
2022-09-30T01:00:40.338Z,6.57
2022-09-30T01:05:44.808Z,6.70
2022-09-30T01:10:47.812Z,4.97
2022-09-30T01:16:07.241Z,6.28
2022-09-30T01:21:35.344Z,6.35
2022-09-30T01:26:53.271Z,6.90
2022-09-30T01:32:07.196Z,6.53
2022-09-30T01:37:18.911Z,5.90
2022-09-30T01:42:29.239Z,6.47
2022-09-30T01:47:42.271Z,6.25
2022-09-30T01:52:51.054Z,5.90
2022-09-30T01:57:58.234Z,6.47
2022-09-30T02:03:06.742Z,6.78
2022-09-30T02:08:16.947Z,6.97
2022-09-30T02:13:23.484Z,6.82
2022-09-30T02:18:31.760Z,6.40
2022-09-30T02:23:40.771Z,6.93
2022-09-30T02:28:47.395Z,6.60
2022-09-30T02:33:55.640Z,6.03
2022-09-30T02:39:04.082Z,6.47
2022-09-30T02:44:07.292Z,6.10
2022-09-30T02:49:21.602Z,6.18
2022-09-30T02:54:32.155Z,4.57
2022-09-30T02:59:34.809Z,5.93
2022-09-30T03:04:42.074Z,5.72
2022-09-30T03:09:45.100Z,5.80
2022-09-30T03:15:04.449Z,6.05
2022-09-30T03:20:31.121Z,6.07
2022-09-30T03:25:44.625Z,6.25
2022-09-30T03:30:53.736Z,5.70
2022-09-30T03:36:02.688Z,6.13
2022-09-30T03:41:12.665Z,6.85
2022-09-30T03:46:23.184Z,7.53
2022-09-30T03:51:29.382Z,14.70
2022-09-30T03:56:32.136Z,9.52
2022-09-30T04:01:34.732Z,7.18
2022-09-30T04:06:38.669Z,6.60
2022-09-30T04:11:41.387Z,5.70
2022-09-30T04:16:44.009Z,6.88
2022-09-30T04:21:48.053Z,6.65
2022-09-30T04:26:51.113Z,4.93
2022-09-30T04:31:53.945Z,5.72
2022-09-30T04:36:57.972Z,6.60
2022-09-30T04:42:00.673Z,6.63
2022-09-30T04:47:03.562Z,7.50
2022-09-30T04:52:07.858Z,6.45
2022-09-30T04:57:10.446Z,5.32
2022-09-30T05:02:13.776Z,7.15
2022-09-30T05:07:18.058Z,7.00
2022-09-30T05:12:24.039Z,5.45
2022-09-30T05:17:26.800Z,7.43
2022-09-30T05:22:30.725Z,7.20
2022-09-30T05:27:33.520Z,7.63
2022-09-30T05:32:36.209Z,8.23
2022-09-30T05:37:40.494Z,7.07
2022-09-30T05:42:47.259Z,5.82
2022-09-30T05:47:52.911Z,8.15
2022-09-30T05:52:57.454Z,7.22
2022-09-30T06:03:02.469Z,7.97
2022-09-30T06:08:07.437Z,8.30
2022-09-30T06:13:10.799Z,8.10
2022-09-30T06:18:17.700Z,8.18
2022-09-30T06:23:21.863Z,8.07
2022-09-30T06:28:25.244Z,9.10
2022-09-30T06:33:27.953Z,9.55
2022-09-30T06:38:32.137Z,8.00
2022-09-30T06:43:44.865Z,7.88
2022-09-30T06:49:09.763Z,7.78
2022-09-30T06:54:16.465Z,7.55
2022-09-30T06:59:19.296Z,7.40
2022-09-30T07:04:22.107Z,6.70
2022-09-30T07:09:26.255Z,5.35
2022-09-30T07:14:31.396Z,4.40
2022-09-30T07:19:35.125Z,5.47
2022-09-30T07:24:39.027Z,4.83
2022-09-30T07:30:07.265Z,5.18
2022-09-30T07:35:06.213Z,5.03
2022-09-30T07:45:15.998Z,5.20
2022-09-30T07:50:18.826Z,5.13
2022-09-30T07:55:22.956Z,5.40
2022-09-30T08:05:48.611Z,5.05
2022-09-30T08:10:52.589Z,4.80
2022-09-30T08:15:55.265Z,4.75
2022-09-30T08:20:58.366Z,4.78
2022-09-30T08:26:08.015Z,4.75
2022-09-30T08:31:13.140Z,4.35
2022-09-30T08:36:18.290Z,4.60
2022-09-30T08:41:41.796Z,4.63
2022-09-30T08:46:47.554Z,5.63
2022-09-30T08:51:52.651Z,5.00
2022-09-30T08:56:57.497Z,22.85
2022-09-30T09:02:03.303Z,7.28
2022-09-30T09:07:11.581Z,7.03
2022-09-30T09:12:29.050Z,5.80
2022-09-30T09:17:50.291Z,4.03
2022-09-30T09:23:11.477Z,4.22
2022-09-30T09:28:27.197Z,4.50
2022-09-30T09:33:31.990Z,3.92
2022-09-30T09:38:41.591Z,3.03
2022-09-30T09:43:58.337Z,3.40
2022-09-30T09:49:30.565Z,2.80
2022-09-30T09:54:36.588Z,3.25
2022-09-30T09:59:58.486Z,2.88
2022-09-30T10:05:03.043Z,2.95
2022-09-30T10:10:23.006Z,2.17
2022-09-30T10:15:28.152Z,2.17
2022-09-30T10:20:33.300Z,2.47
2022-09-30T10:25:36.724Z,1.92
2022-09-30T10:30:56.781Z,1.95
2022-09-30T10:36:09.753Z,1.83
2022-09-30T10:41:12.821Z,2.35
2022-09-30T10:46:26.807Z,2.60
2022-09-30T10:51:36.275Z,2.28
2022-09-30T10:56:43.137Z,2.70
2022-09-30T11:01:53.748Z,2.50
2022-09-30T11:12:16.180Z,4.10
2022-09-30T11:17:41.126Z,4.13
2022-09-30T11:22:53.738Z,4.20
2022-09-30T11:28:14.920Z,3.58
2022-09-30T11:33:32.278Z,2.65
2022-09-30T11:38:54.625Z,2.55
2022-09-30T11:44:09.112Z,2.37
2022-09-30T11:49:39.091Z,2.00
2022-09-30T11:54:55.103Z,3.38
2022-09-30T12:00:02.468Z,2.72
2022-09-30T12:05:12.892Z,3.15
2022-09-30T12:10:22.100Z,4.05
2022-09-30T12:15:26.962Z,4.88
2022-09-30T12:20:35.179Z,4.60
2022-09-30T12:25:42.999Z,4.10
2022-09-30T12:30:47.826Z,2.88
2022-09-30T12:36:07.315Z,3.42
2022-09-30T12:41:40.873Z,2.13
2022-09-30T12:46:59.276Z,2.30
2022-09-30T12:52:08.165Z,2.47
2022-09-30T12:57:11.574Z,2.97
2022-09-30T13:02:31.731Z,2.40
2022-09-30T13:07:36.199Z,2.45
2022-09-30T13:12:44.112Z,2.72
2022-09-30T13:17:47.000Z,2.70
2022-09-30T13:23:01.515Z,3.05
2022-09-30T13:28:30.685Z,2.83
2022-09-30T13:33:46.263Z,2.10
2022-09-30T13:39:07.959Z,3.20
2022-09-30T13:44:16.448Z,2.05
2022-09-30T13:49:24.845Z,3.10
2022-09-30T13:54:33.986Z,2.88
2022-09-30T13:59:49.182Z,2.63
2022-09-30T14:05:06.475Z,2.30
2022-09-30T14:10:23.535Z,1.65
2022-09-30T14:15:48.247Z,1.55
2022-09-30T14:21:06.438Z,1.80
2022-09-30T14:26:26.010Z,1.90
2022-09-30T14:31:32.259Z,1.98
2022-09-30T14:36:35.622Z,2.05
2022-09-30T14:41:41.132Z,1.50
2022-09-30T14:46:46.682Z,1.48
2022-09-30T14:51:50.133Z,1.33
2022-09-30T14:56:54.531Z,1.80
2022-09-30T15:02:00.591Z,1.30
2022-09-30T15:07:07.203Z,1.50
2022-09-30T15:12:16.072Z,1.52
2022-09-30T15:17:20.367Z,1.50
2022-09-30T15:22:24.799Z,1.40
2022-09-30T15:27:31.577Z,1.35
2022-09-30T15:32:36.579Z,1.27
2022-09-30T15:37:39.744Z,1.85
2022-09-30T15:42:53.919Z,1.10
2022-09-30T15:47:59.171Z,0.98
2022-09-30T15:53:06.140Z,1.17
2022-09-30T15:58:37.868Z,1.40
2022-09-30T16:03:47.487Z,1.20
2022-09-30T16:08:54.953Z,1.10
2022-09-30T16:14:00.204Z,1.70
2022-09-30T16:19:04.672Z,5.30
2022-09-30T16:24:43.889Z,4.30
2022-09-30T16:29:48.241Z,4.00
2022-09-30T16:34:50.964Z,2.47
2022-09-30T16:39:56.611Z,2.22
2022-09-30T16:45:01.883Z,2.45
2022-09-30T16:50:16.624Z,4.50
2022-09-30T16:55:19.565Z,4.10
2022-09-30T17:00:23.755Z,4.95
2022-09-30T17:05:27.542Z,6.57
2022-09-30T17:10:33.334Z,7.60
2022-09-30T17:15:37.689Z,7.40
2022-09-30T17:20:45.172Z,11.90
2022-09-30T17:25:48.414Z,10.77
2022-09-30T17:30:52.446Z,9.38
2022-09-30T17:36:00.425Z,7.78
2022-09-30T17:41:21.320Z,8.57
2022-09-30T17:46:25.579Z,8.85
2022-09-30T17:51:28.362Z,10.38
2022-09-30T17:56:32.088Z,9.23
2022-09-30T18:01:41.400Z,11.93
2022-09-30T18:06:44.112Z,15.38
2022-09-30T18:11:46.998Z,14.77
2022-09-30T18:16:51.070Z,14.75
2022-09-30T18:21:54.023Z,14.10
2022-09-30T18:26:56.704Z,17.98
2022-09-30T18:32:01.110Z,15.18
2022-09-30T18:37:06.485Z,17.10
2022-09-30T18:42:09.394Z,16.02
2022-09-30T18:47:16.206Z,15.90
2022-09-30T18:52:18.947Z,14.55
2022-09-30T18:57:21.610Z,15.93
2022-09-30T19:02:27.191Z,17.33
2022-09-30T19:07:29.988Z,16.10
2022-09-30T19:12:35.827Z,14.82
2022-09-30T19:17:40.009Z,13.93
2022-09-30T19:22:43.451Z,9.98
2022-09-30T19:27:46.667Z,13.23
2022-09-30T19:32:56.500Z,17.73
2022-09-30T19:38:03.074Z,15.48
2022-09-30T19:43:08.095Z,12.95
2022-09-30T19:48:12.059Z,12.95
2022-09-30T19:53:27.383Z,13.82
2022-09-30T19:58:33.426Z,12.20
2022-09-30T20:03:37.417Z,11.80
2022-09-30T20:08:40.522Z,9.32
2022-09-30T20:13:43.508Z,12.45
2022-09-30T20:18:47.448Z,11.50
2022-09-30T20:23:50.540Z,11.70
2022-09-30T20:29:00.967Z,12.43
2022-09-30T20:34:06.017Z,14.25
2022-09-30T20:39:09.129Z,13.00
2022-09-30T20:44:13.077Z,12.55
2022-09-30T20:49:17.106Z,11.82
2022-09-30T20:54:19.747Z,11.75
2022-09-30T20:59:23.136Z,11.02
2022-09-30T21:04:27.070Z,11.30
2022-09-30T21:09:30.619Z,10.10
2022-09-30T21:14:33.235Z,9.37
2022-09-30T21:19:40.320Z,9.43
2022-09-30T21:24:43.104Z,9.25
2022-09-30T21:29:45.730Z,9.43
2022-09-30T21:34:49.697Z,9.93
2022-09-30T21:39:52.351Z,10.25
2022-09-30T21:44:55.542Z,9.90
2022-09-30T21:50:06.424Z,10.13
2022-09-30T21:55:11.717Z,10.20
2022-09-30T22:00:14.646Z,8.88
2022-09-30T22:05:20.712Z,9.15
2022-09-30T22:10:23.307Z,8.60
2022-09-30T22:15:26.023Z,9.10
2022-09-30T22:20:30.450Z,8.95
2022-09-30T22:25:33.288Z,6.50
2022-09-30T22:30:36.071Z,8.30
2022-09-30T22:35:59.816Z,9.15
2022-09-30T22:41:02.895Z,9.02
2022-09-30T22:46:07.924Z,8.15
2022-09-30T22:51:16.885Z,8.68
2022-09-30T22:56:20.084Z,8.25
2022-09-30T23:01:23.073Z,8.93
2022-09-30T23:06:27.121Z,7.65
2022-09-30T23:11:29.932Z,7.22
2022-09-30T23:16:32.835Z,7.40
2022-09-30T23:21:37.411Z,6.97
2022-09-30T23:26:40.261Z,7.38
2022-09-30T23:31:43.155Z,7.55
2022-09-30T23:36:47.406Z,7.00
2022-09-30T23:41:50.776Z,7.18
2022-09-30T23:47:11.099Z,7.00
2022-09-30T23:52:16.094Z,7.38
2022-09-30T23:57:18.666Z,7.35
